Pellston, MI

8:33 PM EDT on October 20, 2017 (GMT -0400)
Pellston Regional Airport Of Emmet County

Weather History for KPLN - March, 2013

Change the Weather History Date:

Tuesday, March 19, 2013

  Actual Average Record
Temperature  
Mean Temperature 26 °F -  
Max Temperature 30 °F 40 °F 82 °F (2012)
Min Temperature 23 °F 17 °F -15 °F (1950)
Degree Days  
Heating Degree Days 38    
Moisture  
Dew Point 22 °F    
Average Humidity 82    
Maximum Humidity 93    
Minimum Humidity 69    
Precipitation  
Precipitation 0.11 in - - ()
Sea Level Pressure  
Sea Level Pressure 29.56 in    
Wind  
Wind Speed 10 mph (WSW)    
Max Wind Speed 18 mph    
Max Gust Speed 29 mph    
Visibility 2 miles    
Events Fog , Snow    
Averages and records for this station are not official NWS values.
T = Trace of Precipitation, MM = Missing Value Source: NWS Daily Summary

Daily Weather History Graph

Daily Weather History Graph

Search for Another Location

Airport or City:

Trip Planner

Search our weather history database for the weather conditions in past years. The results will help you decide how hot, cold, wet, or windy it might be!

Date:

Astronomy

Mar. 19, 2013 Rise Set
Actual Time 7:43 AM EDT 7:50 PM EDT
Civil Twilight 7:14 AM EDT 8:20 PM EDT
Nautical Twilight 6:39 AM EDT 8:55 PM EDT
Astronomical Twilight 6:03 AM EDT 9:30 PM EDT
Moon 12:16 PM EDT (3/19) 2:53 AM EDT (3/19)
Length of Visible Light 13h 06m
Length of Day
12h 07m
Waxing Crescent, 49% of the Moon is Illuminated
Mar 19
Waxing Crescent
Mar 19
First Quarter
Mar 27
Full
Apr 3
Last Quarter
Apr 10
New

Hourly Weather History & Observations

Time (EDT) Temp. Windchill Dew Point Humidity Pressure Visibility Wind Dir Wind Speed Gust Speed Precip Events Conditions
12:06 AM 28.4 °F 23.3 °F 26.6 °F 93% 29.48 in 4.0 mi SSE 4.6 mph - 0.00 in Snow Light Snow
12:35 AM 28.4 °F 22.2 °F 26.6 °F 93% 29.46 in 3.0 mi SSE 5.8 mph - 0.00 in Snow Light Snow
12:54 AM 28.9 °F 22.8 °F 26.1 °F 89% 29.48 in 6.0 mi SE 5.8 mph - 0.00 in Snow Light Snow
1:54 AM 28.9 °F 23.9 °F 26.1 °F 89% 29.46 in 5.0 mi SSE 4.6 mph - 0.00 in Snow Light Snow
2:16 AM 28.4 °F - 26.6 °F 93% 29.43 in 3.0 mi Calm Calm - 0.00 in Snow Light Snow
2:25 AM 28.4 °F 24.6 °F 26.6 °F 93% 29.43 in 2.0 mi SSE 3.5 mph - 0.00 in Snow Light Snow
2:54 AM 28.9 °F - 27.0 °F 92% 29.45 in 1.8 mi Calm Calm - 0.00 in Snow Light Snow
3:03 AM 28.4 °F - 26.6 °F 93% 29.42 in 3.0 mi Calm Calm - 0.00 in Snow Light Snow
3:23 AM 30.2 °F 22.6 °F 26.6 °F 86% 29.42 in 9.0 mi WSW 8.1 mph - 0.01 in   Overcast
3:40 AM 30.2 °F 21.3 °F 26.6 °F 86% 29.42 in 3.0 mi West 10.4 mph - 0.01 in Snow Light Snow
3:50 AM 30.2 °F 20.8 °F 24.8 °F 80% 29.42 in 2.5 mi WSW 11.5 mph 20.7 mph 0.01 in Snow Light Snow
3:54 AM 30.0 °F 19.5 °F 25.0 °F 82% 29.44 in 2.5 mi WSW 13.8 mph 20.7 mph 0.01 in Snow Light Snow
4:02 AM 30.2 °F 20.8 °F 24.8 °F 80% 29.42 in 3.0 mi WSW 11.5 mph - 0.00 in Snow Light Snow
4:12 AM 30.2 °F 22.6 °F 24.8 °F 80% 29.42 in 3.0 mi WSW 8.1 mph - 0.00 in Snow Light Snow
4:54 AM 30.0 °F 25.2 °F 25.0 °F 82% 29.44 in 2.5 mi WSW 4.6 mph - 0.00 in Snow Light Snow
5:12 AM 30.2 °F 18.9 °F 24.8 °F 80% 29.42 in 4.0 mi WSW 16.1 mph 24.2 mph 0.00 in Snow Light Snow
5:28 AM 28.4 °F 18.0 °F 23.0 °F 80% 29.43 in 2.5 mi SW 12.7 mph 21.9 mph 0.00 in Snow Light Snow
5:46 AM 28.4 °F 19.1 °F 21.2 °F 74% 29.43 in 1.8 mi SW 10.4 mph 26.5 mph 0.00 in Snow Light Snow
5:50 AM 26.6 °F 14.7 °F 21.2 °F 80% 29.43 in 2.0 mi SW 15.0 mph 26.5 mph 0.00 in Snow Light Snow
5:56 AM 26.6 °F 13.8 °F 21.2 °F 80% 29.44 in 3.0 mi SW 17.3 mph 26.5 mph 0.00 in Snow Light Snow
6:34 AM 26.6 °F 14.7 °F 21.2 °F 80% 29.45 in 2.0 mi SW 15.0 mph 20.7 mph 0.00 in Snow Light Snow
6:47 AM 24.8 °F 14.6 °F 19.4 °F 80% 29.45 in 1.5 mi SSW 10.4 mph 20.7 mph 0.00 in Snow Light Snow
6:54 AM 25.0 °F 13.6 °F 19.9 °F 81% 29.48 in 1.0 mi SSW 12.7 mph 20.7 mph 0.00 in Snow Light Snow
7:02 AM 24.8 °F 13.4 °F 19.4 °F 80% 29.45 in 0.8 mi SSW 12.7 mph 20.7 mph 0.00 in Snow Light Snow
7:15 AM 24.8 °F 14.0 °F 19.4 °F 80% 29.45 in 0.8 mi SSW 11.5 mph 20.7 mph 0.00 in Snow Light Snow
7:20 AM 24.8 °F 12.9 °F 19.4 °F 80% 29.45 in 1.0 mi SSW 13.8 mph 19.6 mph 0.00 in Snow Light Snow
7:54 AM 24.1 °F 13.1 °F 19.0 °F 81% 29.50 in 0.8 mi SW 11.5 mph - 0.00 in Snow Light Snow
8:22 AM 24.8 °F 11.9 °F 19.4 °F 80% 29.47 in 1.5 mi SW 16.1 mph 23.0 mph 0.00 in Snow Light Snow
8:38 AM 24.8 °F 12.4 °F 19.4 °F 80% 29.47 in 1.2 mi SSW 15.0 mph 21.9 mph 0.00 in Snow Light Snow
8:54 AM 24.1 °F 10.6 °F 18.0 °F 77% 29.51 in 1.2 mi SSW 17.3 mph 24.2 mph 0.00 in Snow Light Snow
9:19 AM 23.0 °F 10.1 °F 19.4 °F 86% 29.49 in 0.8 mi SSW 15.0 mph 19.6 mph 0.00 in Snow Light Snow
9:40 AM 23.0 °F 12.4 °F 19.4 °F 86% 29.49 in 0.5 mi SW 10.4 mph 18.4 mph 0.00 in Fog , Snow Snow
9:54 AM 24.1 °F 12.5 °F 19.0 °F 81% 29.52 in 0.5 mi SSW 12.7 mph 16.1 mph 0.00 in Snow Snow
10:10 AM 24.8 °F 15.3 °F 19.4 °F 80% 29.49 in 0.8 mi SW 9.2 mph - 0.00 in Snow Light Snow
10:20 AM 24.8 °F 13.4 °F 19.4 °F 80% 29.49 in 0.5 mi SW 12.7 mph 17.3 mph 0.00 in Snow Snow
10:46 AM 24.8 °F 16.1 °F 19.4 °F 80% 29.49 in 1.0 mi WSW 8.1 mph - 0.00 in Snow Light Snow
10:54 AM 25.0 °F 14.8 °F 19.0 °F 78% 29.53 in 1.2 mi WSW 10.4 mph - 0.00 in Snow Light Snow
11:54 AM 25.0 °F 13.1 °F 18.0 °F 75% 29.54 in 1.2 mi WSW 13.8 mph 21.9 mph 0.01 in Snow Light Snow
12:54 PM 26.1 °F 13.6 °F 19.9 °F 78% 29.55 in 1.0 mi WSW 16.1 mph 27.6 mph 0.00 in Snow Light Snow
1:54 PM 27.0 °F 14.3 °F 21.0 °F 78% 29.57 in 1.0 mi SW 17.3 mph 27.6 mph 0.00 in Snow Light Snow
2:07 PM 26.6 °F 13.8 °F 21.2 °F 80% 29.55 in 0.8 mi WSW 17.3 mph 25.3 mph 0.00 in Snow Light Snow
2:54 PM 27.0 °F 14.7 °F 21.0 °F 78% 29.60 in 0.8 mi West 16.1 mph 27.6 mph 0.00 in Snow Light Snow
3:16 PM 26.6 °F 15.7 °F 21.2 °F 80% 29.58 in 0.5 mi WSW 12.7 mph 24.2 mph 0.00 in Snow Snow
3:54 PM 27.0 °F 17.3 °F 21.9 °F 81% 29.62 in 0.8 mi West 10.4 mph 24.2 mph 0.00 in Snow Light Snow
4:13 PM 26.6 °F 15.7 °F 21.2 °F 80% 29.61 in 0.5 mi West 12.7 mph 24.2 mph 0.00 in Snow Snow
4:31 PM 26.6 °F 13.4 °F 21.2 °F 80% 29.62 in 0.2 mi WSW 18.4 mph 25.3 mph 0.00 in Snow Heavy Snow
4:54 PM 26.1 °F 14.0 °F 21.9 °F 84% 29.66 in 0.2 mi WSW 15.0 mph 26.5 mph 0.00 in Fog , Snow Heavy Snow
5:50 PM 26.6 °F 16.2 °F 21.2 °F 80% 29.65 in 0.5 mi WSW 11.5 mph 21.9 mph 0.01 in Fog , Snow Snow
5:54 PM 26.1 °F 14.5 °F 21.9 °F 84% 29.69 in 0.5 mi West 13.8 mph 19.6 mph 0.01 in Fog , Snow Snow
6:49 PM 26.6 °F 17.5 °F 23.0 °F 86% 29.69 in 0.5 mi West 9.2 mph - 0.00 in Fog , Snow Snow
6:54 PM 27.0 °F 17.3 °F 23.0 °F 85% 29.72 in 0.2 mi West 10.4 mph - 0.00 in Fog , Snow Heavy Snow
7:20 PM 26.6 °F 18.2 °F 24.8 °F 93% 29.70 in 0.5 mi West 8.1 mph - 0.01 in Fog , Snow Snow
7:30 PM 26.6 °F 16.8 °F 23.0 °F 86% 29.71 in 0.2 mi WNW 10.4 mph - 0.02 in Fog , Snow Snow
7:37 PM 26.6 °F 16.2 °F 24.8 °F 93% 29.71 in 0.5 mi NW 11.5 mph - 0.03 in Fog , Snow Snow
7:54 PM 26.1 °F 16.2 °F 23.0 °F 88% 29.75 in 0.5 mi WNW 10.4 mph - 0.03 in Fog , Snow Snow
8:01 PM 26.6 °F 16.8 °F 21.2 °F 80% 29.72 in 1.0 mi WNW 10.4 mph - 0.01 in Snow Light Snow
8:31 PM 26.6 °F 19.1 °F 23.0 °F 86% 29.74 in 0.8 mi NW 6.9 mph - 0.02 in Snow Light Snow
8:46 PM 26.6 °F 16.2 °F 23.0 °F 86% 29.74 in 0.5 mi WNW 11.5 mph - 0.03 in Fog , Snow Snow
8:54 PM 26.1 °F 17.6 °F 23.0 °F 88% 29.78 in 0.5 mi WNW 8.1 mph - 0.04 in Fog , Snow Snow
9:27 PM 26.6 °F 15.7 °F 21.2 °F 80% 29.76 in 1.0 mi WNW 12.7 mph 24.2 mph 0.01 in Snow Light Snow
9:42 PM 24.8 °F 11.5 °F 19.4 °F 80% 29.77 in 1.5 mi WNW 17.3 mph 26.5 mph 0.01 in Snow Light Snow
9:48 PM 24.8 °F 11.5 °F 19.4 °F 80% 29.77 in 2.5 mi WNW 17.3 mph 26.5 mph 0.01 in Snow Light Snow
9:54 PM 25.0 °F 13.6 °F 18.0 °F 75% 29.80 in 2.5 mi West 12.7 mph 23.0 mph 0.01 in Snow Light Snow
10:01 PM 24.8 °F 11.9 °F 17.6 °F 74% 29.77 in 4.0 mi WNW 16.1 mph 26.5 mph 0.00 in Snow Light Snow
10:22 PM 24.8 °F 11.1 °F 15.8 °F 69% 29.77 in 10.0 mi WNW 18.4 mph 28.8 mph 0.00 in   Overcast
10:54 PM 24.1 °F 10.1 °F 15.1 °F 69% 29.81 in 10.0 mi West 18.4 mph 25.3 mph 0.00 in   Overcast
11:54 PM 24.1 °F 11.5 °F 15.1 °F 69% 29.81 in 10.0 mi West 15.0 mph - 0.00 in   Overcast